Du Bois, Pennsylvania
Current Conditions -  °F | °C
As of 10:53 PM on Saturday 25 Oct 2014 (Local Time) from KDUJ Reporting Station
Clear Clear  
Wind Chill: 12°   Ceiling: Unl
Heat Index: 12°   Visibility: 10mi
Dew Point:   Wind: 14mph
Humidity: 59%   Direction: 270°W
Pressure: 29.69"   Gusts: NA
Location:  41.12°N, 78.76°W
Report Text: KDUJ 260253Z AUTO 27012KT 10SM CLR 12/04 A2969 RMK AO2 SLP054 T01220044 58002 $
Loading
Personal Weather Stations






























Interactive Weather Map
Tropical Storm Tracking
New forecast layout! Learn more

10-Day Weather Forecast

Advertisements
Track Severe Weather on mobile